Time;durP1;ratioP1;P1;durP2;ratioP2;P2;SDS_P1;SDS_P2;PMS_P1;PMS_P2;Temp;Humidity;BMP_temperature;BMP_pressure;BME280_temperature;BME280_humidity;BME280_pressure;Samples;Min_cycle;Max_cycle;Signal;HPM_P1;HPM_P2
2022/10/25 00:02:20;;;;;;;10.67;3.60;;;;;;;12.80;100.00;101011.31;5040004;28;21522;-89
2022/10/25 00:04:46;;;;;;;11.30;3.23;;;;;;;12.77;100.00;101011.75;5040318;28;20073;-93
2022/10/25 00:07:11;;;;;;;11.53;3.10;;;;;;;12.78;100.00;101018.03;5038560;28;20040;-90
2022/10/25 00:09:37;;;;;;;11.40;3.20;;;;;;;12.85;100.00;101026.94;5041818;28;20032;-92
2022/10/25 00:12:03;;;;;;;10.57;3.60;;;;;;;12.86;100.00;101019.63;5013808;28;20531;-90
2022/10/25 00:14:28;;;;;;;11.30;3.40;;;;;;;12.85;100.00;101007.91;5021322;28;20037;-91
2022/10/25 00:16:53;;;;;;;11.77;3.57;;;;;;;12.90;100.00;101020.84;5038038;28;20029;-92
2022/10/25 00:19:19;;;;;;;9.30;3.30;;;;;;;12.92;100.00;101022.28;5023013;28;20115;-92
2022/10/25 00:21:44;;;;;;;13.27;3.40;;;;;;;12.92;100.00;101019.56;5040289;28;20561;-90
2022/10/25 00:24:11;;;;;;;10.37;3.00;;;;;;;12.98;100.00;101029.53;5039770;28;20048;-93
2022/10/25 00:26:40;;;;;;;10.40;3.23;;;;;;;13.02;100.00;101029.13;5041374;28;20489;-91
2022/10/25 00:29:06;;;;;;;10.83;3.30;;;;;;;12.96;100.00;101028.94;5031467;28;20037;-96
2022/10/25 00:31:31;;;;;;;11.90;3.10;;;;;;;12.99;100.00;101027.69;5040952;28;20654;-92
2022/10/25 00:33:56;;;;;;;11.90;3.70;;;;;;;12.98;100.00;101029.53;5016534;28;20735;-91
2022/10/25 00:36:25;;;;;;;11.70;3.33;;;;;;;12.89;100.00;101028.19;5040471;28;20975;-92
2022/10/25 00:38:51;;;;;;;11.27;3.70;;;;;;;12.95;100.00;101030.00;5040560;28;20033;-91
2022/10/25 00:41:20;;;;;;;12.67;3.50;;;;;;;12.96;100.00;101036.25;5040450;28;20559;-92
2022/10/25 00:43:54;;;;;;;12.30;3.50;;;;;;;12.95;100.00;101040.88;5040074;28;20036;-93
2022/10/25 00:46:22;;;;;;;14.02;3.67;;;;;;;12.99;100.00;101038.56;5039821;28;20033;-92
2022/10/25 00:48:52;;;;;;;12.20;3.13;;;;;;;12.98;100.00;101039.59;5039493;28;20573;-89
2022/10/25 00:51:19;;;;;;;12.53;3.60;;;;;;;13.07;100.00;101048.31;5040645;28;20035;-94
2022/10/25 00:53:44;;;;;;;11.33;3.17;;;;;;;13.07;100.00;101043.72;5040086;28;20045;-90
2022/10/25 00:56:23;;;;;;;12.40;3.07;;;;;;;13.10;100.00;101037.81;5039547;28;20093;-91
2022/10/25 00:58:53;;;;;;;13.93;3.20;;;;;;;13.13;100.00;101041.97;5041072;28;20563;-92
2022/10/25 01:01:19;;;;;;;11.80;3.00;;;;;;;13.15;100.00;101043.41;5040962;28;20036;-90
2022/10/25 01:03:48;;;;;;;14.07;3.43;;;;;;;13.20;100.00;101050.91;5040458;28;20061;-95
2022/10/25 01:06:33;;;;;;;13.10;3.20;;;;;;;13.23;100.00;101050.47;5022880;28;20385;-89
2022/10/25 01:09:00;;;;;;;12.32;3.33;;;;;;;13.28;100.00;101045.16;5040623;28;20039;-89
2022/10/25 01:11:26;;;;;;;13.43;3.27;;;;;;;13.30;100.00;101047.66;5040648;28;20448;-94
2022/10/25 01:13:52;;;;;;;13.30;3.43;;;;;;;13.33;100.00;101048.06;5035112;28;20120;-93
2022/10/25 01:16:29;;;;;;;12.43;2.97;;;;;;;13.36;100.00;101045.97;5040925;28;20029;-93
2022/10/25 01:19:26;;;;;;;13.87;3.40;;;;;;;13.43;100.00;101052.19;5039332;28;20039;-92
2022/10/25 01:22:13;;;;;;;8.63;3.10;;;;;;;13.47;100.00;101054.22;5016851;28;21370;-92
2022/10/25 01:25:03;;;;;;;16.43;3.57;;;;;;;13.49;100.00;101059.41;5045328;28;20103;-92
2022/10/25 01:27:31;;;;;;;9.93;3.03;;;;;;;13.48;100.00;101057.78;5043474;28;20045;-93
2022/10/25 01:30:02;;;;;;;15.03;3.17;;;;;;;13.46;100.00;101057.16;5043092;28;20049;-90
2022/10/25 01:32:27;;;;;;;10.50;3.50;;;;;;;13.53;100.00;101060.66;5045244;28;20512;-92
2022/10/25 01:35:15;;;;;;;13.63;3.30;;;;;;;13.54;100.00;101067.75;5043385;28;20075;-90
2022/10/25 01:38:13;;;;;;;12.83;3.20;;;;;;;13.50;100.00;101074.69;5044916;28;20039;-93
2022/10/25 01:41:07;;;;;;;13.23;3.30;;;;;;;13.47;100.00;101072.44;5043625;28;20032;-90
2022/10/25 01:43:39;;;;;;;12.40;3.38;;;;;;;13.48;100.00;101065.94;5042630;28;20040;-93
2022/10/25 01:46:23;;;;;;;11.57;2.90;;;;;;;13.45;100.00;101077.25;5037092;28;20080;-92
2022/10/25 01:48:58;;;;;;;11.25;3.80;;;;;;;13.46;100.00;101073.50;5019004;28;20036;-92
2022/10/25 01:51:25;;;;;;;12.00;2.90;;;;;;;13.53;100.00;101062.53;5044572;28;20044;-91
2022/10/25 01:53:51;;;;;;;11.67;2.83;;;;;;;13.44;100.00;101072.91;5043876;28;20056;-89
2022/10/25 01:57:00;;;;;;;10.37;2.70;;;;;;;13.50;100.00;101082.88;5019716;28;20036;-90
2022/10/25 01:59:47;;;;;;;11.23;3.20;;;;;;;13.44;100.00;101065.56;5030015;28;20080;-91
2022/10/25 02:02:29;;;;;;;12.30;3.03;;;;;;;13.41;100.00;101071.47;5019814;28;20028;-95
2022/10/25 02:05:22;;;;;;;12.47;2.90;;;;;;;13.45;100.00;101077.25;5043121;28;20540;-92
2022/10/25 02:08:15;;;;;;;10.00;3.00;;;;;;;13.31;100.00;101063.78;5019668;28;20041;-92
2022/10/25 02:10:47;;;;;;;14.53;3.37;;;;;;;13.38;100.00;101074.63;5042744;28;20069;-89
2022/10/25 02:13:19;;;;;;;8.57;2.60;;;;;;;13.39;100.00;101094.50;5043198;28;20029;-89
2022/10/25 02:16:03;;;;;;;14.00;2.93;;;;;;;13.38;100.00;101079.22;5042831;28;20021;-95
2022/10/25 02:18:37;;;;;;;12.70;2.80;;;;;;;13.36;100.00;101084.09;5018575;28;20197;-91
2022/10/25 02:21:05;;;;;;;10.45;2.95;;;;;;;13.37;100.00;101091.16;5041988;28;20033;-90
2022/10/25 02:23:36;;;;;;;10.23;3.03;;;;;;;13.39;100.00;101081.72;5019603;28;20128;-92
2022/10/25 02:26:04;;;;;;;12.20;2.87;;;;;;;13.37;100.00;101081.13;5043153;28;20370;-91
2022/10/25 02:28:31;;;;;;;11.87;2.60;;;;;;;13.37;100.00;101085.72;5043504;28;20041;-90
2022/10/25 02:30:58;;;;;;;11.47;3.27;;;;;;;13.36;100.00;101101.22;5015213;28;20118;-89
2022/10/25 02:33:24;;;;;;;9.37;2.80;;;;;;;13.31;100.00;101096.44;5033482;28;20060;-91
2022/10/25 02:36:28;;;;;;;10.13;2.63;;;;;;;13.37;100.00;101096.59;5042626;28;20037;-90
2022/10/25 02:38:54;;;;;;;10.17;2.77;;;;;;;13.22;100.00;101095.06;4993408;28;21448;-93
2022/10/25 02:41:21;;;;;;;11.13;2.80;;;;;;;13.29;100.00;101095.81;4975607;28;20042;-89
2022/10/25 02:43:47;;;;;;;11.87;3.10;;;;;;;13.26;100.00;101092.69;4998859;28;20087;-93
2022/10/25 02:46:16;;;;;;;11.57;3.30;;;;;;;13.16;100.00;101085.06;5042109;28;21455;-88
2022/10/25 02:48:41;;;;;;;12.77;3.10;;;;;;;13.13;100.00;101096.38;5043403;28;20048;-92
2022/10/25 02:51:08;;;;;;;12.63;3.13;;;;;;;13.13;100.00;101085.50;5043031;28;20036;-92
2022/10/25 02:53:34;;;;;;;12.70;3.10;;;;;;;13.20;100.00;101090.88;5044833;28;20032;-91
2022/10/25 02:56:01;;;;;;;11.13;3.13;;;;;;;13.12;100.00;101100.16;5042875;28;20068;-90
2022/10/25 02:58:32;;;;;;;11.53;3.30;;;;;;;13.14;100.00;101100.78;5015871;28;20056;-94
2022/10/25 03:00:58;;;;;;;12.83;3.63;;;;;;;13.15;100.00;101106.00;5022927;28;20116;-89
2022/10/25 03:03:24;;;;;;;10.07;3.07;;;;;;;13.04;100.00;101086.84;5041770;28;20544;-93
2022/10/25 03:05:49;;;;;;;11.40;3.40;;;;;;;13.07;100.00;101099.97;5043375;28;20048;-91
2022/10/25 03:08:15;;;;;;;10.90;3.53;;;;;;;13.07;100.00;101092.69;5025144;28;20051;-91
2022/10/25 03:10:40;;;;;;;13.07;3.10;;;;;;;13.05;100.00;101102.94;5016949;28;20084;-91
2022/10/25 03:13:05;;;;;;;12.40;3.47;;;;;;;12.99;100.00;101104.66;5028763;28;20036;-91
2022/10/25 03:15:31;;;;;;;11.33;3.10;;;;;;;12.96;100.00;101107.81;4996727;28;20032;-91
2022/10/25 03:17:56;;;;;;;10.10;3.33;;;;;;;12.91;100.00;101107.66;5041877;28;20041;-94
2022/10/25 03:20:22;;;;;;;9.40;2.93;;;;;;;12.82;100.00;101112.53;5026347;28;20029;-92
2022/10/25 03:22:47;;;;;;;9.67;2.90;;;;;;;12.81;100.00;101112.72;5025414;28;20533;-91
2022/10/25 03:25:12;;;;;;;11.50;3.40;;;;;;;12.78;100.00;101111.31;5014901;28;20040;-95
2022/10/25 03:27:38;;;;;;;9.90;2.93;;;;;;;12.81;100.00;101124.47;5042221;28;20040;-92
2022/10/25 03:30:04;;;;;;;11.20;3.23;;;;;;;12.75;100.00;101132.66;5016782;28;20039;-91
2022/10/25 03:32:30;;;;;;;9.33;3.10;;;;;;;12.76;100.00;101131.63;5041774;28;20361;-92
2022/10/25 03:34:55;;;;;;;11.47;3.23;;;;;;;12.73;100.00;101130.16;5024718;28;20123;-91
2022/10/25 03:37:20;;;;;;;10.27;3.60;;;;;;;12.68;100.00;101132.69;5023625;28;20441;-92
2022/10/25 03:39:46;;;;;;;8.90;3.37;;;;;;;12.77;100.00;101136.84;5025726;28;20106;-89
2022/10/25 03:42:11;;;;;;;11.93;3.50;;;;;;;12.68;100.00;101154.44;5022271;28;20358;-93
2022/10/25 03:44:36;;;;;;;12.27;3.17;;;;;;;12.67;100.00;101152.78;5041380;28;20064;-90
2022/10/25 03:47:02;;;;;;;9.13;3.10;;;;;;;12.59;100.00;101147.59;5040924;28;20048;-91
2022/10/25 03:49:27;;;;;;;11.20;3.10;;;;;;;12.60;100.00;101152.00;5041717;28;20105;-93
2022/10/25 03:51:52;;;;;;;11.87;3.13;;;;;;;12.61;100.00;101151.78;5002309;28;20041;-92
2022/10/25 03:54:18;;;;;;;10.63;2.90;;;;;;;12.55;100.00;101141.78;5041460;28;20036;-89
2022/10/25 03:56:43;;;;;;;9.37;2.90;;;;;;;12.61;100.00;101159.94;5023823;28;20129;-91
2022/10/25 03:59:08;;;;;;;9.67;3.27;;;;;;;12.54;100.00;101159.13;5025301;28;20368;-93
2022/10/25 04:01:34;;;;;;;7.43;2.80;;;;;;;12.55;100.00;101159.97;5041479;28;20032;-89
2022/10/25 04:03:59;;;;;;;9.43;3.00;;;;;;;12.58;100.00;101165.81;5033884;28;20539;-93
2022/10/25 04:06:24;;;;;;;9.83;3.10;;;;;;;12.54;100.00;101158.28;5036159;28;20045;-93
2022/10/25 04:08:50;;;;;;;9.37;2.97;;;;;;;12.55;100.00;101166.25;5042110;28;20036;-91
2022/10/25 04:11:15;;;;;;;11.97;3.50;;;;;;;12.51;100.00;101164.97;5034900;28;20114;-93
2022/10/25 04:13:41;;;;;;;6.27;2.90;;;;;;;12.46;100.00;101151.25;5042491;28;20079;-94
2022/10/25 04:16:07;;;;;;;7.20;2.97;;;;;;;12.45;100.00;101157.72;5042242;28;20034;-94
2022/10/25 04:18:32;;;;;;;10.43;3.37;;;;;;;12.42;100.00;101147.28;5033400;28;20557;-93
2022/10/25 04:20:58;;;;;;;8.37;3.13;;;;;;;12.50;100.00;101169.59;5032750;28;20036;-91
2022/10/25 04:23:23;;;;;;;9.93;3.10;;;;;;;12.48;100.00;101170.88;5023907;28;20477;-92
2022/10/25 04:25:49;;;;;;;11.13;3.77;;;;;;;12.43;100.00;101173.38;5041592;28;20036;-92
2022/10/25 04:28:15;;;;;;;8.50;3.10;;;;;;;12.39;100.00;101178.44;5023253;28;20040;-94
2022/10/25 04:30:40;;;;;;;10.57;3.03;;;;;;;12.42;100.00;101177.19;5042825;28;20052;-91
2022/10/25 04:33:24;;;;;;;11.93;3.60;;;;;;;12.42;100.00;101172.56;5022792;28;20483;-91
2022/10/25 04:35:55;;;;;;;11.30;2.97;;;;;;;12.42;100.00;101175.28;5041621;28;20124;-92
2022/10/25 04:38:20;;;;;;;9.83;3.33;;;;;;;12.42;100.00;101174.47;5040772;28;20043;-91
2022/10/25 04:40:55;;;;;;;11.00;3.10;;;;;;;12.39;100.00;101177.59;5041760;28;20076;-93
2022/10/25 04:43:21;;;;;;;12.13;3.00;;;;;;;12.37;100.00;101179.69;5027153;28;20033;-90
2022/10/25 04:45:47;;;;;;;10.80;3.50;;;;;;;12.39;100.00;101191.16;5002686;28;20051;-90
2022/10/25 04:48:12;;;;;;;9.23;2.97;;;;;;;12.33;100.00;101182.00;5041389;28;20060;-89
2022/10/25 04:50:37;;;;;;;9.43;3.23;;;;;;;12.28;100.00;101176.38;5014215;28;20099;-93
2022/10/25 04:53:04;;;;;;;10.20;3.13;;;;;;;12.31;100.00;101187.66;5041120;28;20033;-93
2022/10/25 04:55:30;;;;;;;8.27;3.10;;;;;;;12.28;100.00;101176.38;5021396;28;20526;-91
2022/10/25 04:57:56;;;;;;;9.83;3.47;;;;;;;12.28;100.00;101181.81;5044179;28;20052;-93
2022/10/25 05:00:21;;;;;;;9.73;3.50;;;;;;;12.26;100.00;101195.63;5036918;28;20072;-90
2022/10/25 05:02:46;;;;;;;10.53;3.67;;;;;;;12.26;100.00;101183.94;5043610;28;20090;-92
2022/10/25 05:05:12;;;;;;;8.90;3.30;;;;;;;12.21;100.00;101189.16;5045048;28;20044;-93
2022/10/25 05:07:37;;;;;;;8.93;3.40;;;;;;;12.19;100.00;101189.38;5044002;28;20044;-93
2022/10/25 05:10:03;;;;;;;8.03;3.57;;;;;;;12.20;100.00;101193.78;5044468;28;20611;-92
2022/10/25 05:12:29;;;;;;;8.33;3.57;;;;;;;12.19;100.00;101197.53;4999810;28;20416;-92
2022/10/25 05:14:54;;;;;;;9.80;3.83;;;;;;;12.20;100.00;101201.06;5039987;28;20044;-93
2022/10/25 05:17:19;;;;;;;11.00;3.90;;;;;;;12.12;100.00;101199.44;5023968;28;20120;-93
2022/10/25 05:19:45;;;;;;;11.77;3.87;;;;;;;12.18;100.00;101204.00;5024110;28;20414;-91
2022/10/25 05:22:10;;;;;;;9.10;3.70;;;;;;;12.12;100.00;101204.88;5024260;28;20492;-95
2022/10/25 05:24:35;;;;;;;10.93;4.10;;;;;;;12.23;100.00;101212.34;4999785;28;20562;-89
2022/10/25 05:27:01;;;;;;;10.53;4.27;;;;;;;12.21;100.00;101219.03;5024447;28;20037;-94
2022/10/25 05:29:26;;;;;;;12.20;4.10;;;;;;;12.19;100.00;101208.38;5023335;28;20083;-92
2022/10/25 05:31:51;;;;;;;11.37;4.10;;;;;;;12.14;100.00;101210.91;5006675;28;20080;-89
2022/10/25 05:34:17;;;;;;;13.43;3.97;;;;;;;12.14;100.00;101216.34;5023855;28;20045;-90
2022/10/25 05:36:42;;;;;;;11.57;4.13;;;;;;;12.08;100.00;101219.94;5025125;28;20445;-95
2022/10/25 05:39:08;;;;;;;10.60;3.63;;;;;;;12.08;100.00;101219.94;5021410;28;20048;-91
2022/10/25 05:41:33;;;;;;;8.27;3.50;;;;;;;12.09;100.00;101224.28;5022625;28;20608;-92
2022/10/25 05:43:58;;;;;;;9.97;3.77;;;;;;;12.08;100.00;101225.34;5007910;28;20164;-92
2022/10/25 05:46:24;;;;;;;10.50;3.60;;;;;;;12.11;100.00;101225.75;5022838;28;20536;-93
2022/10/25 05:48:50;;;;;;;15.80;3.83;;;;;;;12.08;100.00;101237.03;5022532;28;20604;-92
2022/10/25 05:51:17;;;;;;;13.60;3.70;;;;;;;12.12;100.00;101234.75;5023607;28;20037;-95
2022/10/25 05:53:48;;;;;;;9.70;3.60;;;;;;;12.04;100.00;101243.94;5023894;28;20542;-93
2022/10/25 05:56:14;;;;;;;9.20;3.50;;;;;;;12.06;100.00;101254.59;5038414;28;20102;-93
2022/10/25 05:58:40;;;;;;;11.23;3.63;;;;;;;11.97;100.00;101237.69;5023301;28;20040;-90
2022/10/25 06:01:08;;;;;;;12.50;3.63;;;;;;;12.03;100.00;101249.59;5024184;28;20048;-91
2022/10/25 06:03:34;;;;;;;11.00;3.80;;;;;;;11.97;100.00;101245.84;5023879;28;20340;-96
2022/10/25 06:06:01;;;;;;;10.20;3.70;;;;;;;12.01;100.00;101257.09;5006699;28;20044;-92
2022/10/25 06:08:27;;;;;;;11.73;3.70;;;;;;;12.08;100.00;101252.53;5022576;28;20041;-91
2022/10/25 06:10:53;;;;;;;9.20;3.63;;;;;;;12.04;100.00;101262.13;5030388;28;20053;-92
2022/10/25 06:13:18;;;;;;;11.03;3.90;;;;;;;12.09;100.00;101271.31;5026025;28;20543;-89
2022/10/25 06:15:43;;;;;;;12.37;4.20;;;;;;;12.03;100.00;101257.75;5025177;28;20044;-92
2022/10/25 06:18:09;;;;;;;9.17;4.10;;;;;;;12.08;100.00;101263.38;5023525;28;20565;-93
2022/10/25 06:20:34;;;;;;;10.83;4.53;;;;;;;12.06;100.00;101270.88;5042607;28;20131;-90
2022/10/25 06:23:00;;;;;;;8.57;4.50;;;;;;;12.05;100.00;101261.06;5042582;28;20032;-93
2022/10/25 06:25:25;;;;;;;12.90;5.03;;;;;;;12.03;100.00;101282.19;5043448;28;20036;-93
2022/10/25 06:27:50;;;;;;;11.57;5.10;;;;;;;12.05;100.00;101277.38;5043570;28;20485;-92
2022/10/25 06:30:16;;;;;;;11.97;5.27;;;;;;;12.04;100.00;101276.53;4998925;28;20141;-92
2022/10/25 06:32:41;;;;;;;14.67;6.07;;;;;;;11.99;100.00;101281.75;5044948;28;20043;-90
2022/10/25 06:35:07;;;;;;;12.50;5.50;;;;;;;11.99;100.00;101281.75;5041026;28;20304;-91
2022/10/25 06:37:32;;;;;;;14.10;6.17;;;;;;;12.04;100.00;101281.16;5042396;28;20071;-89
2022/10/25 06:39:57;;;;;;;15.57;6.50;;;;;;;12.02;100.00;101288.66;5034387;28;20530;-90
2022/10/25 06:42:23;;;;;;;15.20;6.77;;;;;;;11.99;100.00;101298.91;5042154;28;20185;-92
2022/10/25 06:44:48;;;;;;;13.43;6.43;;;;;;;11.95;100.00;101294.94;5042342;28;20032;-90
2022/10/25 06:47:13;;;;;;;10.67;6.50;;;;;;;11.98;100.00;101299.94;5042046;28;20047;-91
2022/10/25 06:49:39;;;;;;;16.60;7.37;;;;;;;12.02;100.00;101304.94;5042110;28;20452;-91
2022/10/25 06:52:04;;;;;;;18.37;6.83;;;;;;;12.00;100.00;101307.88;5025967;28;20028;-94
2022/10/25 06:54:30;;;;;;;12.17;6.87;;;;;;;12.06;100.00;101303.47;5029305;28;20063;-90
2022/10/25 06:56:56;;;;;;;11.80;6.70;;;;;;;12.03;100.00;101306.63;5042184;28;20036;-92
2022/10/25 06:59:22;;;;;;;14.30;7.30;;;;;;;12.06;100.00;101308.91;5042665;28;20626;-92
2022/10/25 07:01:48;;;;;;;17.77;6.90;;;;;;;12.09;100.00;101309.34;5023842;28;20036;-91
2022/10/25 07:04:14;;;;;;;15.53;6.83;;;;;;;12.12;100.00;101318.94;5041082;28;20056;-91
2022/10/25 07:06:39;;;;;;;14.93;6.77;;;;;;;12.09;100.00;101308.47;5042278;28;20127;-93
2022/10/25 07:09:08;;;;;;;16.20;6.93;;;;;;;12.13;100.00;101315.16;5040391;28;20507;-93
2022/10/25 07:11:34;;;;;;;16.40;6.97;;;;;;;12.16;100.00;101325.63;5039043;28;20057;-90
2022/10/25 07:14:00;;;;;;;17.00;7.60;;;;;;;12.20;100.00;101326.88;5041328;28;20032;-90
2022/10/25 07:16:27;;;;;;;17.83;7.50;;;;;;;12.26;100.00;101334.16;5027926;28;20052;-92
2022/10/25 07:18:57;;;;;;;15.20;7.30;;;;;;;12.33;100.00;101332.31;5039844;28;20118;-90
2022/10/25 07:21:22;;;;;;;16.97;7.43;;;;;;;12.32;100.00;101330.63;5041578;28;20035;-91
2022/10/25 07:23:49;;;;;;;14.03;7.40;;;;;;;12.41;100.00;101338.56;4998971;28;20424;-92
2022/10/25 07:26:16;;;;;;;19.20;7.97;;;;;;;12.45;100.00;101335.19;5021117;28;20176;-88
2022/10/25 07:28:45;;;;;;;14.90;8.00;;;;;;;12.53;100.00;101341.47;5042951;28;20036;-91
2022/10/25 07:31:23;;;;;;;14.03;7.50;;;;;;;12.65;100.00;101347.91;5040667;28;20048;-91
2022/10/25 07:33:50;;;;;;;15.67;7.50;;;;;;;12.65;100.00;101350.63;5018437;28;20032;-92
2022/10/25 07:36:15;;;;;;;16.63;7.63;;;;;;;12.74;100.00;101353.94;5041908;28;20033;-91
2022/10/25 07:38:41;;;;;;;17.03;8.20;;;;;;;12.75;100.00;101356.44;5025861;28;20067;-93
2022/10/25 07:41:07;;;;;;;17.07;8.00;;;;;;;12.74;100.00;101360.22;5018230;28;20603;-94
2022/10/25 07:43:33;;;;;;;14.17;7.67;;;;;;;12.83;100.00;101358.09;5044061;28;20041;-89
2022/10/25 07:45:58;;;;;;;14.80;7.67;;;;;;;12.85;100.00;101364.13;5042020;28;20033;-93
2022/10/25 07:48:24;;;;;;;14.93;7.80;;;;;;;12.86;100.00;101360.38;5025779;28;20045;-93
2022/10/25 07:50:49;;;;;;;18.30;8.50;;;;;;;12.93;100.00;101358.50;5041788;28;21248;-91
2022/10/25 07:53:15;;;;;;;14.40;8.03;;;;;;;12.88;100.00;101361.00;5042482;28;20493;-93
2022/10/25 07:55:40;;;;;;;16.43;7.87;;;;;;;12.93;100.00;101377.53;5017820;28;20041;-92
2022/10/25 07:58:09;;;;;;;17.27;9.40;;;;;;;12.79;100.00;101363.13;5023322;28;20037;-92
2022/10/25 08:00:35;;;;;;;14.87;8.73;;;;;;;12.87;100.00;101367.50;5017378;28;20152;-94
2022/10/25 08:03:01;;;;;;;16.10;9.03;;;;;;;12.91;100.00;101379.63;5040984;28;20056;-91
2022/10/25 08:05:26;;;;;;;16.70;8.67;;;;;;;12.95;100.00;101371.88;5000999;28;20091;-92
2022/10/25 08:07:52;;;;;;;14.73;9.20;;;;;;;12.99;100.00;101373.94;5023482;28;20086;-93
2022/10/25 08:10:19;;;;;;;15.17;8.73;;;;;;;12.99;100.00;101378.56;5040318;28;20032;-89
2022/10/25 08:12:46;;;;;;;18.90;8.70;;;;;;;13.08;100.00;101379.13;5039994;28;20061;-89
2022/10/25 08:15:11;;;;;;;16.73;7.93;;;;;;;13.06;100.00;101382.06;5038835;28;20501;-94
2022/10/25 08:17:37;;;;;;;15.30;8.20;;;;;;;13.15;100.00;101393.53;5041276;28;20033;-90
2022/10/25 08:20:02;;;;;;;15.00;8.57;;;;;;;13.09;100.00;101384.34;4985423;28;20039;-90
2022/10/25 08:22:28;;;;;;;14.77;7.33;;;;;;;13.20;100.00;101401.06;5040816;28;20039;-90
2022/10/25 08:24:53;;;;;;;15.07;7.53;;;;;;;13.15;100.00;101377.22;5041390;28;20064;-89
2022/10/25 08:27:18;;;;;;;14.33;8.00;;;;;;;13.27;100.00;101389.13;5016612;28;20494;-94
2022/10/25 08:29:44;;;;;;;14.03;8.13;;;;;;;13.34;100.00;101389.91;5024627;28;20483;-91
2022/10/25 08:32:09;;;;;;;16.20;8.47;;;;;;;13.39;100.00;101393.91;5027696;28;20649;-90
2022/10/25 08:34:35;;;;;;;18.83;8.47;;;;;;;13.41;100.00;101400.78;5045099;28;20090;-91
2022/10/25 08:37:00;;;;;;;13.97;7.53;;;;;;;13.40;100.00;101390.13;5036919;28;20182;-92
2022/10/25 08:39:25;;;;;;;15.20;7.90;;;;;;;13.47;100.00;101401.81;5019599;28;20072;-90
2022/10/25 08:41:59;;;;;;;15.23;7.47;;;;;;;13.49;100.00;101396.97;5037119;28;20640;-93
2022/10/25 08:44:50;;;;;;;12.70;7.40;;;;;;;13.51;100.00;101412.03;5045009;28;20108;-90
2022/10/25 08:47:18;;;;;;;12.90;7.37;;;;;;;13.58;100.00;101397.56;5042819;28;20037;-88
2022/10/25 08:49:52;;;;;;;17.73;7.40;;;;;;;13.62;100.00;101404.25;5047804;28;20079;-94
2022/10/25 08:52:25;;;;;;;;;;;;;;;13.79;100.00;101410.84;5044625;28;20033;-95
2022/10/25 08:54:51;;;;;;;13.70;6.90;;;;;;;13.71;100.00;101399.34;5026138;28;19920;-91
2022/10/25 08:57:26;;;;;;;12.67;7.17;;;;;;;13.60;100.00;101406.34;5009261;28;20033;-92
2022/10/25 09:00:09;;;;;;;21.10;13.73;;;;;;;13.70;100.00;101411.31;5032023;28;20276;-94
2022/10/25 09:02:57;;;;;;;22.23;15.20;;;;;;;13.81;100.00;101418.78;5045227;28;20094;-93
2022/10/25 09:05:38;;;;;;;13.80;8.00;;;;;;;13.81;100.00;101418.78;5031344;28;20123;-92
2022/10/25 09:08:18;;;;;;;15.77;7.37;;;;;;;13.75;100.00;101425.09;5048122;28;20562;-90
2022/10/25 09:10:44;;;;;;;15.63;7.00;;;;;;;13.78;100.00;101424.69;5037689;28;20076;-93
2022/10/25 09:13:34;;;;;;;13.33;6.23;;;;;;;13.83;100.00;101419.38;5045666;28;20040;-93
2022/10/25 09:16:08;;;;;;;11.87;6.47;;;;;;;13.92;100.00;101437.16;5029504;28;20048;-94
2022/10/25 09:18:48;;;;;;;15.30;6.78;;;;;;;13.95;100.00;101428.56;5027859;28;20040;-93
2022/10/25 09:21:20;;;;;;;16.00;6.63;;;;;;;13.96;100.00;101429.38;5036913;28;20087;-90
2022/10/25 09:23:56;;;;;;;12.83;6.10;;;;;;;14.01;100.00;101435.81;5027239;28;20041;-94
2022/10/25 09:26:27;;;;;;;14.00;6.43;;;;;;;14.13;100.00;101435.97;5037870;28;20388;-92
2022/10/25 09:29:16;;;;;;;12.93;5.93;;;;;;;14.23;100.00;101443.63;5044447;28;20409;-93
2022/10/25 09:31:48;;;;;;;13.00;6.10;;;;;;;14.35;100.00;101444.59;5019489;28;20158;-92
2022/10/25 09:34:17;;;;;;;13.83;5.70;;;;;;;14.38;100.00;101454.22;5043955;28;20053;-91
2022/10/25 09:37:11;;;;;;;12.87;5.17;;;;;;;14.51;100.00;101466.91;5043845;28;20043;-89
2022/10/25 09:39:41;;;;;;;10.93;5.20;;;;;;;14.35;100.00;101452.75;5044301;28;20121;-92
2022/10/25 09:42:16;;;;;;;9.47;5.10;;;;;;;14.41;100.00;101455.66;5044269;28;20032;-92
2022/10/25 09:44:49;;;;;;;11.83;5.17;;;;;;;14.47;100.00;101457.47;5045539;28;20678;-89
2022/10/25 09:47:42;;;;;;;10.73;5.17;;;;;;;14.45;100.00;101463.16;5043744;28;20040;-90
2022/10/25 09:50:34;;;;;;;10.30;4.07;;;;;;;14.60;99.91;101456.53;5044618;28;20037;-94
2022/10/25 09:53:13;;;;;;;14.20;4.73;;;;;;;14.60;99.22;101456.53;5042731;28;20044;-90
2022/10/25 09:55:58;;;;;;;11.00;4.80;;;;;;;14.58;99.49;101459.50;5044717;28;20029;-93
2022/10/25 09:58:30;;;;;;;11.90;4.50;;;;;;;14.60;99.10;101459.28;5043852;28;20674;-93
2022/10/25 10:01:05;;;;;;;9.70;4.13;;;;;;;14.59;98.56;101460.31;5026765;28;20046;-92
2022/10/25 10:03:34;;;;;;;9.70;4.57;;;;;;;14.62;98.74;101462.59;5043311;28;20040;-93
2022/10/25 10:06:03;;;;;;;10.73;4.67;;;;;;;14.63;99.49;101467.88;5044181;28;20029;-94
2022/10/25 10:08:32;;;;;;;10.70;4.50;;;;;;;14.62;99.00;101468.03;5036867;28;20042;-89
2022/10/25 10:10:58;;;;;;;10.13;4.20;;;;;;;14.67;98.33;101465.53;5043301;28;20053;-89
2022/10/25 10:13:42;;;;;;;11.50;4.00;;;;;;;14.76;98.52;101475.09;5040642;28;20048;-89
2022/10/25 10:16:25;;;;;;;10.10;4.00;;;;;;;14.61;97.78;101478.13;5026100;28;20079;-93
2022/10/25 10:18:51;;;;;;;11.67;4.63;;;;;;;14.69;96.89;101483.34;5044046;28;20373;-90
2022/10/25 10:21:19;;;;;;;9.87;3.73;;;;;;;14.54;97.86;101477.38;5015312;28;20091;-91
2022/10/25 10:23:54;;;;;;;11.40;3.73;;;;;;;14.57;99.16;101482.38;5043472;28;20528;-95
2022/10/25 10:26:25;;;;;;;10.17;3.70;;;;;;;14.52;98.73;101487.66;5035481;28;20533;-91
2022/10/25 10:29:07;;;;;;;12.17;4.03;;;;;;;14.49;99.18;101490.81;5044198;28;20037;-91
2022/10/25 10:31:39;;;;;;;12.50;4.03;;;;;;;14.50;99.27;101482.41;5045696;28;20469;-93
2022/10/25 10:34:23;;;;;;;11.07;3.63;;;;;;;14.65;98.93;101497.66;5044317;28;20115;-93
2022/10/25 10:37:01;;;;;;;11.52;3.60;;;;;;;14.61;99.37;101486.31;5042976;28;20108;-92
2022/10/25 10:39:26;;;;;;;10.47;3.63;;;;;;;14.61;98.92;101483.59;5035110;28;20476;-93
2022/10/25 10:42:10;;;;;;;12.63;3.73;;;;;;;14.71;99.15;101494.03;5003188;28;21422;-90
2022/10/25 10:44:36;;;;;;;11.95;3.55;;;;;;;14.76;97.65;101487.91;5041018;28;20095;-93
2022/10/25 10:47:10;;;;;;;12.10;3.77;;;;;;;14.84;97.88;101498.53;5008248;28;20131;-92
2022/10/25 10:49:37;;;;;;;;;;;;;;;15.13;96.32;101499.69;5044890;28;20028;-90
2022/10/25 10:52:03;;;;;;;11.27;3.50;;;;;;;14.92;96.45;101498.25;5042154;28;19932;-93
2022/10/25 10:54:46;;;;;;;11.17;3.30;;;;;;;14.99;96.90;101500.91;5042474;28;20461;-93
2022/10/25 10:57:24;;;;;;;11.53;3.37;;;;;;;14.90;96.97;101496.78;5043024;28;20099;-90
2022/10/25 10:59:54;;;;;;;11.93;3.80;;;;;;;14.84;96.81;101501.25;5042152;28;20037;-92
2022/10/25 11:02:25;;;;;;;9.13;3.30;;;;;;;14.79;96.16;101506.56;5044770;28;21762;-92
2022/10/25 11:04:53;;;;;;;12.57;3.70;;;;;;;14.80;95.96;101502.78;5042143;28;20079;-91
2022/10/25 11:07:33;;;;;;;12.87;3.20;;;;;;;14.76;98.24;101501.56;5041751;28;20036;-92
2022/10/25 11:10:20;;;;;;;11.77;3.30;;;;;;;14.79;98.81;101499.19;5042798;28;20039;-94
2022/10/25 11:13:07;;;;;;;12.17;3.50;;;;;;;14.75;98.57;101502.59;5042764;28;20068;-93
2022/10/25 11:16:09;;;;;;;11.00;3.33;;;;;;;14.84;98.90;101499.34;5032645;28;20411;-93
2022/10/25 11:18:47;;;;;;;12.02;3.70;;;;;;;14.88;99.12;101494.28;5016490;28;20036;-91
2022/10/25 11:21:27;;;;;;;12.10;3.50;;;;;;;14.88;97.92;101502.47;5015013;28;20025;-89
2022/10/25 11:24:08;;;;;;;11.63;3.50;;;;;;;14.93;97.19;101496.34;5026374;28;20064;-92
2022/10/25 11:26:49;;;;;;;11.13;3.63;;;;;;;14.97;98.04;101506.59;5019047;28;20148;-90